createdAt,value
2019-04-04T00:01:32.723Z,14.50
2019-04-04T00:04:04.107Z,14.46
2019-04-04T00:06:35.379Z,14.40
2019-04-04T00:09:10.307Z,14.35
2019-04-04T00:11:41.693Z,14.28
2019-04-04T00:14:13.521Z,14.19
2019-04-04T00:16:46.742Z,14.14
2019-04-04T00:19:18.083Z,14.09
2019-04-04T00:21:49.471Z,14.03
2019-04-04T00:24:20.829Z,14.01
2019-04-04T00:26:52.128Z,13.99
2019-04-04T00:29:23.419Z,13.94
2019-04-04T00:31:54.611Z,13.88
2019-04-04T00:34:27.946Z,13.81
2019-04-04T00:36:58.803Z,13.74
2019-04-04T00:39:31.134Z,13.68
2019-04-04T00:42:02.784Z,13.61
2019-04-04T00:44:34.186Z,13.49
2019-04-04T00:47:05.410Z,13.39
2019-04-04T00:49:37.702Z,13.29
2019-04-04T00:52:10.333Z,13.20
2019-04-04T00:54:44.654Z,13.12
2019-04-04T00:57:18.576Z,13.02
2019-04-04T00:59:48.693Z,12.91
2019-04-04T01:02:20.130Z,12.83
2019-04-04T01:04:51.679Z,12.74
2019-04-04T01:07:23.073Z,12.64
2019-04-04T01:09:54.785Z,12.51
2019-04-04T01:12:26.321Z,12.40
2019-04-04T01:15:00.120Z,12.22
2019-04-04T01:17:33.020Z,12.03
2019-04-04T01:20:06.649Z,11.84
2019-04-04T01:22:38.119Z,11.70
2019-04-04T01:25:09.695Z,11.60
2019-04-04T01:27:41.206Z,11.50
2019-04-04T01:30:12.778Z,11.40
2019-04-04T01:32:44.005Z,11.33
2019-04-04T01:35:15.255Z,11.22
2019-04-04T01:37:46.524Z,11.12
2019-04-04T01:40:17.787Z,11.01
2019-04-04T01:42:48.963Z,10.84
2019-04-04T01:45:20.134Z,10.73
2019-04-04T01:47:51.398Z,10.64
2019-04-04T01:50:23.298Z,10.54
2019-04-04T01:52:54.640Z,10.45
2019-04-04T01:55:25.936Z,10.41
2019-04-04T01:57:57.113Z,10.37
2019-04-04T02:00:28.542Z,10.33
2019-04-04T02:02:59.711Z,10.31
2019-04-04T02:05:30.898Z,10.24
2019-04-04T02:08:02.405Z,10.19
2019-04-04T02:10:34.937Z,10.19
2019-04-04T02:13:09.624Z,10.15
2019-04-04T02:15:39.374Z,10.13
2019-04-04T02:18:10.514Z,10.13
2019-04-04T02:20:41.694Z,10.10
2019-04-04T02:23:12.894Z,10.09
2019-04-04T02:25:44.124Z,10.08
2019-04-04T02:28:15.280Z,10.04
2019-04-04T02:30:48.478Z,10.03
2019-04-04T02:33:19.334Z,10.00
2019-04-04T02:35:50.572Z,9.98
2019-04-04T02:38:21.806Z,9.96
2019-04-04T02:40:53.029Z,9.96
2019-04-04T02:43:27.337Z,9.94
2019-04-04T02:45:57.084Z,9.89
2019-04-04T02:48:28.231Z,9.83
2019-04-04T02:50:59.360Z,9.80
2019-04-04T02:53:30.501Z,9.80
2019-04-04T02:56:03.239Z,9.79
2019-04-04T02:58:34.642Z,9.80
2019-04-04T03:01:05.834Z,9.77
2019-04-04T03:03:41.151Z,9.74
2019-04-04T03:06:09.829Z,9.73
2019-04-04T03:08:41.035Z,9.70
2019-04-04T03:11:12.191Z,9.70
2019-04-04T03:13:43.358Z,9.70
2019-04-04T03:16:14.528Z,9.69
2019-04-04T03:18:45.682Z,9.69
2019-04-04T03:21:16.815Z,9.65
2019-04-04T03:23:48.051Z,9.60
2019-04-04T03:26:20.595Z,9.57
2019-04-04T03:28:51.854Z,9.55
2019-04-04T03:31:22.968Z,9.52
2019-04-04T03:33:54.163Z,9.51
2019-04-04T03:36:25.279Z,9.50
2019-04-04T03:38:56.443Z,9.48
2019-04-04T03:41:30.673Z,9.49
2019-04-04T03:44:00.440Z,9.47
2019-04-04T03:46:37.434Z,9.46
2019-04-04T03:49:05.540Z,9.46
2019-04-04T03:51:37.986Z,9.46
2019-04-04T03:54:16.721Z,9.47
2019-04-04T03:56:47.885Z,9.50
2019-04-04T03:59:18.975Z,9.51
2019-04-04T04:01:50.147Z,9.54
2019-04-04T04:04:26.809Z,9.58
2019-04-04T04:06:55.969Z,9.61
2019-04-04T04:09:27.328Z,9.64
2019-04-04T04:11:58.628Z,9.66
2019-04-04T04:14:29.826Z,9.69
2019-04-04T04:17:01.187Z,9.72
2019-04-04T04:19:32.392Z,9.75
2019-04-04T04:22:03.552Z,9.77
2019-04-04T04:24:34.743Z,9.79
2019-04-04T04:27:05.934Z,9.79
2019-04-04T04:29:37.136Z,9.75
2019-04-04T04:32:08.293Z,9.71
2019-04-04T04:34:39.459Z,9.68
2019-04-04T04:37:10.641Z,9.69
2019-04-04T04:39:41.779Z,9.70
2019-04-04T04:42:13.039Z,9.68
2019-04-04T04:44:44.179Z,9.68
2019-04-04T04:47:15.339Z,9.69
2019-04-04T04:49:46.553Z,9.64
2019-04-04T04:52:17.751Z,9.59
2019-04-04T04:54:48.943Z,9.55
2019-04-04T04:57:29.354Z,9.51
2019-04-04T04:59:53.019Z,9.48
2019-04-04T05:02:24.144Z,9.46
2019-04-04T05:04:55.272Z,9.49
2019-04-04T05:07:26.432Z,9.50
2019-04-04T05:09:57.592Z,9.48
2019-04-04T05:12:28.744Z,9.48
2019-04-04T05:15:01.432Z,9.47
2019-04-04T05:17:32.837Z,9.49
2019-04-04T05:20:04.812Z,9.48
2019-04-04T05:22:35.950Z,9.47
2019-04-04T05:25:08.726Z,9.49
2019-04-04T05:27:40.311Z,9.54
2019-04-04T05:30:11.519Z,9.58
2019-04-04T05:32:42.705Z,9.60
2019-04-04T05:35:15.225Z,9.61
2019-04-04T05:37:46.653Z,9.63
2019-04-04T05:40:17.832Z,9.68
2019-04-04T05:42:49.090Z,9.71
2019-04-04T05:45:20.227Z,9.74
2019-04-04T05:47:54.973Z,9.73
2019-04-04T05:50:25.400Z,9.75
2019-04-04T05:52:56.517Z,9.74
2019-04-04T05:55:27.693Z,9.73
2019-04-04T05:57:58.834Z,9.75
2019-04-04T06:00:29.984Z,9.77
2019-04-04T06:03:01.160Z,9.75
2019-04-04T06:05:32.354Z,9.77
2019-04-04T06:08:03.549Z,9.79
2019-04-04T06:10:34.936Z,9.75
2019-04-04T06:13:06.101Z,9.74
2019-04-04T06:15:37.248Z,9.76
2019-04-04T06:18:10.977Z,9.79
2019-04-04T06:20:41.268Z,9.82
2019-04-04T06:23:12.441Z,9.85
2019-04-04T06:25:43.616Z,9.85
2019-04-04T06:28:14.801Z,9.83
2019-04-04T06:30:45.997Z,9.84
2019-04-04T06:33:17.245Z,9.83
2019-04-04T06:35:48.434Z,9.76
2019-04-04T06:38:23.080Z,9.72
2019-04-04T06:40:53.556Z,9.73
2019-04-04T06:43:24.750Z,9.75
2019-04-04T06:45:55.934Z,9.74
2019-04-04T06:48:29.298Z,9.74
2019-04-04T06:51:00.018Z,9.77
2019-04-04T06:53:31.205Z,9.74
2019-04-04T06:56:03.027Z,9.71
2019-04-04T06:58:34.276Z,9.70
2019-04-04T07:01:05.446Z,9.74
2019-04-04T07:03:36.639Z,9.80
2019-04-04T07:06:09.837Z,9.86
2019-04-04T07:08:40.687Z,9.90
2019-04-04T07:11:21.096Z,9.96
2019-04-04T07:13:44.940Z,9.98
2019-04-04T07:16:16.089Z,10.01
2019-04-04T07:18:47.316Z,10.03
2019-04-04T07:21:20.207Z,10.06
2019-04-04T07:23:51.450Z,10.01
2019-04-04T07:26:22.684Z,9.98
2019-04-04T07:28:54.118Z,9.98
2019-04-04T07:31:26.299Z,9.96
2019-04-04T07:33:57.463Z,9.98
2019-04-04T07:36:28.638Z,10.00
2019-04-04T07:39:00.338Z,10.02
2019-04-04T07:41:33.990Z,10.01
2019-04-04T07:44:05.188Z,9.95
2019-04-04T07:46:36.332Z,9.95
2019-04-04T07:49:07.504Z,10.00
2019-04-04T07:51:38.647Z,10.09
2019-04-04T07:54:09.880Z,10.18
2019-04-04T07:56:41.028Z,10.28
2019-04-04T07:59:12.508Z,10.38
2019-04-04T08:01:50.977Z,10.46
2019-04-04T08:04:16.627Z,10.54
2019-04-04T08:06:47.790Z,10.61
2019-04-04T08:09:19.030Z,10.71
2019-04-04T08:11:50.200Z,10.77
2019-04-04T08:14:21.381Z,10.85
2019-04-04T08:16:52.561Z,10.88
2019-04-04T08:19:23.709Z,10.95
2019-04-04T08:21:54.887Z,11.03
2019-04-04T08:24:26.106Z,11.05
2019-04-04T08:26:57.287Z,11.10
2019-04-04T08:29:28.455Z,11.12
2019-04-04T08:31:59.627Z,11.12
2019-04-04T08:34:31.004Z,11.13
2019-04-04T08:37:02.184Z,11.12
2019-04-04T08:39:33.340Z,11.13
2019-04-04T08:42:04.564Z,11.16
2019-04-04T08:44:35.707Z,11.21
2019-04-04T08:47:06.907Z,11.25
2019-04-04T08:49:38.084Z,11.29
2019-04-04T08:52:16.461Z,11.32
2019-04-04T08:54:42.204Z,11.35
2019-04-04T08:57:13.348Z,11.39
2019-04-04T08:59:44.500Z,11.44
2019-04-04T09:02:15.724Z,11.49
2019-04-04T09:04:46.910Z,11.52
2019-04-04T09:07:18.060Z,11.55
2019-04-04T09:09:49.349Z,11.52
2019-04-04T09:12:20.538Z,11.52
2019-04-04T09:14:51.851Z,11.55
2019-04-04T09:17:23.032Z,11.57
2019-04-04T09:19:54.275Z,11.54
2019-04-04T09:22:25.426Z,11.54
2019-04-04T09:24:57.604Z,11.55
2019-04-04T09:27:29.760Z,11.56
2019-04-04T09:30:00.917Z,11.55
2019-04-04T09:32:32.057Z,11.60
2019-04-04T09:35:03.269Z,11.65
2019-04-04T09:37:34.402Z,11.68
2019-04-04T09:40:06.228Z,11.74
2019-04-04T09:42:37.387Z,11.78
2019-04-04T09:45:09.080Z,11.83
2019-04-04T09:47:40.227Z,11.90
2019-04-04T09:50:12.596Z,11.95
2019-04-04T09:52:43.737Z,11.98
2019-04-04T09:55:14.990Z,11.99
2019-04-04T09:57:46.158Z,11.99
2019-04-04T10:00:19.322Z,12.01
2019-04-04T10:02:50.652Z,12.01
2019-04-04T10:05:21.796Z,11.99
2019-04-04T10:07:52.982Z,12.01
2019-04-04T10:10:24.197Z,12.05
2019-04-04T10:12:55.402Z,12.09
2019-04-04T10:15:26.555Z,12.12
2019-04-04T10:17:57.769Z,12.11
2019-04-04T10:20:28.991Z,12.12
2019-04-04T10:23:00.187Z,12.13
2019-04-04T10:25:31.834Z,12.16
2019-04-04T10:28:02.996Z,12.21
2019-04-04T10:30:34.158Z,12.24
2019-04-04T10:33:05.400Z,12.28
2019-04-04T10:35:36.562Z,12.28
2019-04-04T10:38:07.700Z,12.34
2019-04-04T10:40:38.834Z,12.37
2019-04-04T10:43:09.983Z,12.38
2019-04-04T10:45:41.121Z,12.43
2019-04-04T10:48:12.271Z,12.50
2019-04-04T10:50:43.428Z,12.60
2019-04-04T10:53:14.582Z,12.69
2019-04-04T10:55:45.839Z,12.76
2019-04-04T10:58:17.137Z,12.81
2019-04-04T11:00:48.300Z,12.88
2019-04-04T11:03:19.466Z,12.93
2019-04-04T11:05:50.629Z,12.98
2019-04-04T11:08:21.784Z,12.99
2019-04-04T11:10:53.007Z,13.02
2019-04-04T11:13:33.277Z,13.04
2019-04-04T11:15:57.109Z,13.01
2019-04-04T11:18:29.092Z,12.98
2019-04-04T11:21:00.375Z,12.99
2019-04-04T11:23:31.547Z,13.03
2019-04-04T11:26:03.844Z,13.07
2019-04-04T11:28:35.000Z,13.09
2019-04-04T11:31:06.187Z,13.12
2019-04-04T11:33:37.332Z,13.17
2019-04-04T11:36:08.571Z,13.24
2019-04-04T11:38:39.890Z,13.30
2019-04-04T11:41:11.099Z,13.34
2019-04-04T11:43:42.314Z,13.40
2019-04-04T11:46:13.552Z,13.47
2019-04-04T11:48:44.709Z,13.52
2019-04-04T11:51:15.896Z,13.57
2019-04-04T11:53:47.300Z,13.60
2019-04-04T11:56:18.458Z,13.65
2019-04-04T11:58:49.668Z,13.73
2019-04-04T12:01:21.446Z,13.82
2019-04-04T12:03:52.597Z,13.94
2019-04-04T12:06:23.784Z,14.06
2019-04-04T12:08:54.960Z,14.21
2019-04-04T12:11:26.105Z,14.40
2019-04-04T12:13:57.380Z,14.56
2019-04-04T12:16:28.636Z,14.69
2019-04-04T12:18:59.781Z,14.82
2019-04-04T12:21:30.928Z,14.89
2019-04-04T12:24:02.099Z,14.96
2019-04-04T12:26:33.351Z,15.03
2019-04-04T12:29:04.504Z,15.11
2019-04-04T12:31:36.819Z,15.22
2019-04-04T12:34:07.988Z,15.34
2019-04-04T12:36:39.130Z,15.41
2019-04-04T12:39:10.334Z,15.35
2019-04-04T12:41:42.564Z,15.34
2019-04-04T12:44:13.775Z,15.38
2019-04-04T12:46:44.999Z,15.45
2019-04-04T12:49:16.186Z,15.59
2019-04-04T12:51:47.340Z,15.70
2019-04-04T12:54:18.493Z,15.84
2019-04-04T12:56:49.701Z,15.95
2019-04-04T12:59:20.911Z,16.03
2019-04-04T13:01:52.115Z,16.09
2019-04-04T13:04:31.527Z,16.15
2019-04-04T13:06:56.307Z,16.28
2019-04-04T13:09:27.580Z,16.48
2019-04-04T13:11:58.782Z,16.63
2019-04-04T13:14:29.953Z,16.87
2019-04-04T13:17:01.144Z,17.15
2019-04-04T13:19:32.448Z,17.35
2019-04-04T13:22:03.846Z,17.52
2019-04-04T13:24:35.180Z,17.63
2019-04-04T13:27:06.477Z,17.74
2019-04-04T13:29:37.731Z,17.80
2019-04-04T13:32:09.171Z,17.79
2019-04-04T13:34:40.404Z,17.84
2019-04-04T13:37:11.912Z,17.97
2019-04-04T13:39:43.894Z,18.26
2019-04-04T13:42:16.654Z,18.94
2019-04-04T13:44:48.314Z,19.77
2019-04-04T13:47:19.563Z,20.44
2019-04-04T13:49:51.150Z,20.95
2019-04-04T13:52:26.086Z,21.38
2019-04-04T13:54:56.033Z,21.66
2019-04-04T13:57:28.363Z,21.82
2019-04-04T14:00:00.650Z,21.91
2019-04-04T14:02:32.488Z,21.91
2019-04-04T14:05:09.586Z,22.08
2019-04-04T14:07:37.090Z,22.21
2019-04-04T14:10:09.115Z,22.31
2019-04-04T14:12:40.375Z,22.37
2019-04-04T14:15:12.568Z,22.47
2019-04-04T14:17:44.315Z,22.52
2019-04-04T14:20:15.754Z,22.67
2019-04-04T14:22:47.789Z,22.85
2019-04-04T14:25:20.501Z,22.99
2019-04-04T14:27:57.813Z,23.08
2019-04-04T14:30:28.134Z,23.18
2019-04-04T14:32:59.839Z,23.12
2019-04-04T14:35:31.126Z,23.08
2019-04-04T14:38:02.493Z,23.13
2019-04-04T14:40:33.818Z,23.22
2019-04-04T14:43:05.071Z,23.20
2019-04-04T14:45:36.452Z,23.11
2019-04-04T14:48:08.732Z,23.03
2019-04-04T14:50:40.736Z,23.10
2019-04-04T14:53:12.018Z,23.24
2019-04-04T14:55:43.275Z,23.26
2019-04-04T14:58:16.523Z,23.21
2019-04-04T15:00:48.074Z,23.18
2019-04-04T15:03:20.851Z,23.25
2019-04-04T15:05:52.724Z,23.25
2019-04-04T15:08:23.999Z,23.16
2019-04-04T15:11:01.276Z,22.97
2019-04-04T15:13:34.232Z,22.62
2019-04-04T15:16:19.089Z,22.31
2019-04-04T15:18:53.115Z,21.95
2019-04-04T15:21:27.333Z,21.43
2019-04-04T15:23:58.952Z,20.97
2019-04-04T15:26:30.389Z,20.58
2019-04-04T15:29:01.689Z,20.11
2019-04-04T15:31:32.977Z,19.71
2019-04-04T15:34:04.282Z,19.44
2019-04-04T15:36:35.599Z,19.23
2019-04-04T15:39:07.500Z,18.93
2019-04-04T15:41:39.029Z,18.81
2019-04-04T15:44:10.468Z,18.90
2019-04-04T15:46:44.190Z,19.11
2019-04-04T15:49:15.465Z,19.33
2019-04-04T15:51:46.892Z,19.62
2019-04-04T15:54:18.951Z,19.89
2019-04-04T15:56:50.322Z,20.01
2019-04-04T15:59:21.668Z,19.96
2019-04-04T16:01:52.966Z,19.84
2019-04-04T16:04:24.299Z,19.62
2019-04-04T16:06:55.755Z,19.37
2019-04-04T16:09:30.304Z,19.06
2019-04-04T16:12:05.535Z,18.72
2019-04-04T16:14:43.678Z,18.45
2019-04-04T16:17:16.779Z,18.16
2019-04-04T16:19:48.302Z,17.94
2019-04-04T16:22:19.658Z,17.87
2019-04-04T16:24:53.445Z,17.91
2019-04-04T16:27:24.925Z,17.92
2019-04-04T16:29:56.249Z,17.92
2019-04-04T16:32:27.614Z,17.85
2019-04-04T16:34:59.009Z,17.96
2019-04-04T16:37:30.266Z,18.19
2019-04-04T16:40:08.629Z,18.42
2019-04-04T16:42:35.579Z,18.21
2019-04-04T16:45:07.641Z,17.93
2019-04-04T16:47:39.062Z,17.50
2019-04-04T16:50:10.445Z,17.06
2019-04-04T16:52:41.917Z,16.70
2019-04-04T16:55:13.592Z,16.46
2019-04-04T16:57:45.036Z,16.37
2019-04-04T17:00:16.793Z,16.34
2019-04-04T17:02:48.334Z,16.30
2019-04-04T17:05:20.105Z,16.24
2019-04-04T17:07:51.559Z,16.07
2019-04-04T17:10:22.999Z,15.87
2019-04-04T17:12:54.279Z,15.69
2019-04-04T17:15:27.340Z,15.49
2019-04-04T17:17:58.668Z,15.21
2019-04-04T17:20:29.930Z,15.02
2019-04-04T17:23:01.267Z,14.85
2019-04-04T17:25:32.743Z,14.71
2019-04-04T17:28:04.496Z,14.61
2019-04-04T17:30:36.142Z,14.41
2019-04-04T17:33:07.517Z,14.26
2019-04-04T17:35:39.394Z,14.05
2019-04-04T17:38:10.962Z,13.89
2019-04-04T17:40:42.399Z,13.75
2019-04-04T17:43:13.795Z,13.66
2019-04-04T17:45:45.075Z,13.52
2019-04-04T17:48:16.568Z,13.36
2019-04-04T17:50:48.708Z,13.20
2019-04-04T17:53:20.284Z,13.08
2019-04-04T17:55:55.533Z,13.00
2019-04-04T17:58:27.960Z,12.93
2019-04-04T18:01:06.893Z,12.83
2019-04-04T18:03:41.008Z,12.78
2019-04-04T18:06:12.573Z,12.72
2019-04-04T18:08:44.014Z,12.62
2019-04-04T18:11:15.512Z,12.52
2019-04-04T18:13:46.923Z,12.48
2019-04-04T18:16:18.523Z,12.40
2019-04-04T18:18:49.938Z,12.31
2019-04-04T18:21:21.169Z,12.24
2019-04-04T18:23:52.839Z,12.15
2019-04-04T18:26:24.301Z,12.09
2019-04-04T18:28:55.740Z,12.00
2019-04-04T18:31:28.290Z,11.87
2019-04-04T18:33:59.846Z,11.78
2019-04-04T18:36:31.280Z,11.68
2019-04-04T18:39:02.676Z,11.60
2019-04-04T18:41:35.934Z,11.55
2019-04-04T18:44:07.263Z,11.48
2019-04-04T18:46:38.574Z,11.43
2019-04-04T18:49:09.894Z,11.37
2019-04-04T18:55:19.546Z,11.29
2019-04-04T18:57:43.989Z,11.19
2019-04-04T19:00:15.777Z,11.19
2019-04-04T19:02:54.098Z,11.15
2019-04-04T19:05:26.399Z,11.14
2019-04-04T19:07:59.702Z,11.13
2019-04-04T19:10:33.029Z,11.11
2019-04-04T19:13:07.477Z,11.08
2019-04-04T19:15:44.967Z,11.04
2019-04-04T19:18:16.416Z,11.01
2019-04-04T19:21:04.433Z,10.96
2019-04-04T19:23:48.655Z,10.90
2019-04-04T19:26:20.057Z,10.87
2019-04-04T19:28:53.826Z,10.85
2019-04-04T19:31:25.068Z,10.79
2019-04-04T19:33:56.461Z,10.73
2019-04-04T19:36:27.763Z,10.69
2019-04-04T19:39:00.403Z,10.64
2019-04-04T19:41:34.317Z,10.64
2019-04-04T19:44:05.985Z,10.63
2019-04-04T19:46:37.558Z,10.61
2019-04-04T19:49:08.948Z,10.54
2019-04-04T19:51:40.254Z,10.52
2019-04-04T19:54:11.596Z,10.50
2019-04-04T19:56:42.980Z,10.48
2019-04-04T19:59:14.768Z,10.47
2019-04-04T20:01:46.104Z,10.43
2019-04-04T20:04:17.590Z,10.41
2019-04-04T20:06:48.879Z,10.38
2019-04-04T20:09:20.329Z,10.38
2019-04-04T20:11:52.222Z,10.37
2019-04-04T20:14:27.463Z,10.39
2019-04-04T20:16:56.543Z,10.39
2019-04-04T20:19:28.072Z,10.40
2019-04-04T20:21:59.335Z,10.41
2019-04-04T20:24:30.987Z,10.41
2019-04-04T20:27:05.238Z,10.42
2019-04-04T20:29:36.497Z,10.43
2019-04-04T20:32:08.148Z,10.48
2019-04-04T20:34:39.741Z,10.50
2019-04-04T20:37:11.224Z,10.49
2019-04-04T20:39:42.753Z,10.46
2019-04-04T20:42:14.133Z,10.44
2019-04-04T20:44:45.636Z,10.42
2019-04-04T20:47:17.349Z,10.40
2019-04-04T20:49:48.789Z,10.38
2019-04-04T20:52:20.299Z,10.39
2019-04-04T20:54:51.573Z,10.39
2019-04-04T20:57:22.991Z,10.42
2019-04-04T20:59:54.223Z,10.41
2019-04-04T21:02:26.770Z,10.41
2019-04-04T21:04:58.140Z,10.40
2019-04-04T21:07:29.550Z,10.39
2019-04-04T21:10:02.088Z,10.40
2019-04-04T21:12:33.472Z,10.37
2019-04-04T21:15:07.793Z,10.36
2019-04-04T21:17:39.206Z,10.34
2019-04-04T21:20:10.722Z,10.33
2019-04-04T21:22:42.143Z,10.33
2019-04-04T21:25:13.443Z,10.32
2019-04-04T21:27:44.810Z,10.29
2019-04-04T21:30:16.981Z,10.29
2019-04-04T21:32:48.255Z,10.27
2019-04-04T21:35:19.492Z,10.27
2019-04-04T21:37:50.791Z,10.29
2019-04-04T21:40:22.052Z,10.29
2019-04-04T21:42:54.051Z,10.30
2019-04-04T21:45:27.424Z,10.31
2019-04-04T21:47:58.311Z,10.29
2019-04-04T21:50:29.695Z,10.27
2019-04-04T21:53:00.918Z,10.26
2019-04-04T21:55:32.213Z,10.27
2019-04-04T21:58:03.687Z,10.23
2019-04-04T22:00:41.318Z,10.20
2019-04-04T22:03:13.346Z,10.17
2019-04-04T22:05:44.701Z,10.16
2019-04-04T22:08:15.998Z,10.18
2019-04-04T22:10:47.375Z,10.19
2019-04-04T22:13:18.828Z,10.19
2019-04-04T22:15:50.209Z,10.17
2019-04-04T22:18:21.530Z,10.16
2019-04-04T22:20:52.884Z,10.15
2019-04-04T22:23:24.184Z,10.15
2019-04-04T22:25:55.465Z,10.16
2019-04-04T22:28:26.856Z,10.15
2019-04-04T22:30:58.086Z,10.15
2019-04-04T22:33:29.431Z,10.15
2019-04-04T22:36:00.693Z,10.14
2019-04-04T22:38:32.005Z,10.13
2019-04-04T22:41:03.426Z,10.14
2019-04-04T22:43:34.800Z,10.15
2019-04-04T22:46:06.196Z,10.12
2019-04-04T22:48:37.513Z,10.10
2019-04-04T22:51:08.787Z,10.08
2019-04-04T22:53:40.067Z,10.06
2019-04-04T22:56:11.356Z,10.05
2019-04-04T22:58:42.676Z,10.08
2019-04-04T23:01:14.044Z,10.10
2019-04-04T23:03:45.288Z,10.12
2019-04-04T23:06:16.534Z,10.12
2019-04-04T23:08:47.898Z,10.12
2019-04-04T23:11:19.156Z,10.11
2019-04-04T23:13:50.415Z,10.08
2019-04-04T23:16:21.711Z,10.07
2019-04-04T23:18:53.021Z,10.06
2019-04-04T23:21:24.338Z,10.06
2019-04-04T23:23:55.592Z,10.05
2019-04-04T23:26:26.879Z,10.04
2019-04-04T23:28:59.135Z,10.01
2019-04-04T23:31:30.411Z,9.98
2019-04-04T23:34:01.939Z,9.94
2019-04-04T23:36:35.253Z,9.93
2019-04-04T23:39:07.485Z,9.89
2019-04-04T23:41:38.731Z,9.87
2019-04-04T23:44:10.181Z,9.86
2019-04-04T23:46:41.466Z,9.83
2019-04-04T23:49:12.691Z,9.84
2019-04-04T23:51:44.079Z,9.85
2019-04-04T23:54:15.349Z,9.86
2019-04-04T23:56:46.737Z,9.87
2019-04-04T23:59:18.025Z,9.88
